Terminal Aerodrome Forecast
Issued by NWS Charleston, WV

Home | Current Version | Previous Version | Text Only | Print | Product List | Glossary On
Versions: 1 2 3 4 5 6 7 8 9 10 11 12 13 14 15 16 17 18 19 20 21 22
383
FTUS41 KRLX 060835 AAA
TAFPKB
TAF AMD
KPKB 060835Z 0609/0706 34006KT P6SM BKN050
     FM062000 33010G17KT P6SM BKN050
     FM062300 33009KT P6SM SCT060
     FM070200 32005KT P6SM SCT050=

USA.gov is the U.S. government's official web portal to all federal, state and local government web resources and services.